createdAt,value
2022-11-05T00:01:39.464Z,18.10
2022-11-05T00:04:31.059Z,17.80
2022-11-05T00:07:26.695Z,16.80
2022-11-05T00:10:03.658Z,15.20
2022-11-05T00:12:53.577Z,12.90
2022-11-05T00:15:44.478Z,11.30
2022-11-05T00:18:19.527Z,9.90
2022-11-05T00:20:52.286Z,9.90
2022-11-05T00:23:43.869Z,9.20
2022-11-05T00:26:16.597Z,8.70
2022-11-05T00:28:50.192Z,8.90
2022-11-05T00:31:24.941Z,8.00
2022-11-05T00:33:57.309Z,7.00
2022-11-05T00:36:30.484Z,5.90
2022-11-05T00:39:04.000Z,5.60
2022-11-05T00:41:37.488Z,5.50
2022-11-05T00:44:27.364Z,5.40
2022-11-05T00:47:14.177Z,5.70
2022-11-05T00:49:46.691Z,5.90
2022-11-05T00:52:37.155Z,6.30
2022-11-05T00:55:10.518Z,6.80
2022-11-05T00:57:42.912Z,6.90
2022-11-05T01:00:17.704Z,6.90
2022-11-05T01:02:50.458Z,6.60
2022-11-05T01:05:23.140Z,6.00
2022-11-05T01:07:58.003Z,6.20
2022-11-05T01:10:30.108Z,5.90
2022-11-05T01:13:07.597Z,6.30
2022-11-05T01:15:44.563Z,6.00
2022-11-05T01:18:17.159Z,6.30
2022-11-05T01:20:49.847Z,6.30
2022-11-05T01:23:23.009Z,6.40
2022-11-05T01:25:55.529Z,6.80
2022-11-05T01:28:31.963Z,6.90
2022-11-05T01:31:05.279Z,7.20
2022-11-05T01:33:37.635Z,7.50
2022-11-05T01:36:11.394Z,7.80
2022-11-05T01:38:43.828Z,7.70
2022-11-05T01:41:16.676Z,7.70
2022-11-05T01:43:54.569Z,7.80
2022-11-05T01:46:32.186Z,8.10
2022-11-05T01:49:12.596Z,8.20
2022-11-05T01:51:46.223Z,8.20
2022-11-05T01:54:21.782Z,8.20
2022-11-05T01:56:56.739Z,7.50
2022-11-05T01:59:31.218Z,7.80
2022-11-05T02:02:04.253Z,8.10
2022-11-05T02:04:40.322Z,8.00
2022-11-05T02:07:13.370Z,8.40
2022-11-05T02:09:51.997Z,9.20
2022-11-05T02:12:24.713Z,10.30
2022-11-05T02:14:59.524Z,10.70
2022-11-05T02:17:41.497Z,9.20
2022-11-05T02:20:36.600Z,9.30
2022-11-05T02:23:36.354Z,8.20
2022-11-05T02:26:31.105Z,8.80
2022-11-05T02:29:38.079Z,8.50
2022-11-05T02:32:16.150Z,9.00
2022-11-05T02:34:55.897Z,9.60
2022-11-05T02:37:39.242Z,9.50
2022-11-05T02:40:17.761Z,9.20
2022-11-05T02:43:00.338Z,9.00
2022-11-05T02:45:40.174Z,9.00
2022-11-05T02:48:19.965Z,8.40
2022-11-05T02:50:57.235Z,7.70
2022-11-05T02:53:35.381Z,8.20
2022-11-05T02:56:10.512Z,8.30
2022-11-05T02:58:43.054Z,8.70
2022-11-05T03:01:17.296Z,8.90
2022-11-05T03:03:54.452Z,9.00
2022-11-05T03:06:51.138Z,10.10
2022-11-05T03:09:41.893Z,10.20
2022-11-05T03:12:23.099Z,11.00
2022-11-05T03:15:02.580Z,11.20
2022-11-05T03:17:39.600Z,12.60
2022-11-05T03:20:17.322Z,11.50
2022-11-05T03:22:55.269Z,12.00
2022-11-05T03:25:29.423Z,11.60
2022-11-05T03:28:06.909Z,10.60
2022-11-05T03:30:40.727Z,11.10
2022-11-05T03:33:21.286Z,12.00
2022-11-05T03:35:55.734Z,11.60
2022-11-05T03:38:33.708Z,10.30
2022-11-05T03:41:11.921Z,10.10
2022-11-05T03:43:48.489Z,13.50
2022-11-05T03:46:26.479Z,10.10
2022-11-05T03:49:03.211Z,13.10
2022-11-05T03:51:45.292Z,12.20
2022-11-05T03:54:18.585Z,9.50
2022-11-05T03:57:02.558Z,9.10
2022-11-05T03:59:42.697Z,7.90
2022-11-05T04:02:19.910Z,6.70
2022-11-05T04:04:52.245Z,6.40
2022-11-05T04:07:42.664Z,6.00
2022-11-05T04:10:33.901Z,6.00
2022-11-05T04:13:29.170Z,6.00
2022-11-05T04:16:20.896Z,6.30
2022-11-05T04:18:53.973Z,6.70
2022-11-05T04:21:57.870Z,6.40
2022-11-05T04:24:30.628Z,7.10
2022-11-05T04:27:02.829Z,7.20
2022-11-05T04:30:02.725Z,7.90
2022-11-05T04:32:35.739Z,8.80
2022-11-05T04:35:08.903Z,9.70
2022-11-05T04:37:42.180Z,10.60
2022-11-05T04:40:14.890Z,10.90
2022-11-05T04:42:48.657Z,11.30
2022-11-05T04:45:22.143Z,11.50
2022-11-05T04:47:56.317Z,10.80
2022-11-05T04:50:29.332Z,11.30
2022-11-05T04:53:01.870Z,11.10
2022-11-05T04:55:34.415Z,10.90
2022-11-05T04:58:08.604Z,11.20
2022-11-05T05:00:41.370Z,11.70
2022-11-05T05:03:14.388Z,12.10
2022-11-05T05:05:46.939Z,12.20
2022-11-05T05:08:20.617Z,12.40
2022-11-05T05:10:54.170Z,12.90
2022-11-05T05:13:26.919Z,15.50
2022-11-05T05:16:01.270Z,16.60
2022-11-05T05:18:35.912Z,16.90
2022-11-05T05:21:28.025Z,17.50
2022-11-05T05:24:00.169Z,16.70
2022-11-05T05:26:39.812Z,16.00
2022-11-05T05:29:12.866Z,17.00
2022-11-05T05:31:46.679Z,16.10
2022-11-05T05:34:18.832Z,15.50
2022-11-05T05:36:51.958Z,18.70
2022-11-05T05:39:26.095Z,17.10
2022-11-05T05:41:59.454Z,17.00
2022-11-05T05:44:31.399Z,18.30
2022-11-05T05:47:07.717Z,21.00
2022-11-05T05:49:41.386Z,24.60
2022-11-05T05:52:14.539Z,21.90
2022-11-05T05:54:47.060Z,23.60
2022-11-05T05:57:19.960Z,24.70
2022-11-05T05:59:53.745Z,25.10
2022-11-05T06:02:27.050Z,24.00
2022-11-05T06:05:00.007Z,21.90
2022-11-05T06:07:37.305Z,21.10
2022-11-05T06:10:12.816Z,21.40
2022-11-05T06:12:47.717Z,21.80
2022-11-05T06:15:21.518Z,24.40
2022-11-05T06:17:56.639Z,24.70
2022-11-05T06:20:31.005Z,24.70
2022-11-05T06:23:03.731Z,25.00
2022-11-05T06:25:41.239Z,24.50
2022-11-05T06:28:14.341Z,23.80
2022-11-05T06:30:46.395Z,24.50
2022-11-05T06:33:19.839Z,26.30
2022-11-05T06:35:52.458Z,28.40
2022-11-05T06:38:25.449Z,27.10
2022-11-05T06:41:03.310Z,25.90
2022-11-05T06:43:44.117Z,27.00
2022-11-05T06:46:16.248Z,31.30
2022-11-05T06:48:48.920Z,30.50
2022-11-05T06:51:22.085Z,31.10
2022-11-05T06:53:57.399Z,24.20
2022-11-05T06:56:29.692Z,25.10
2022-11-05T06:59:06.793Z,26.90
2022-11-05T07:01:40.981Z,24.30
2022-11-05T07:04:15.845Z,25.50
2022-11-05T07:06:47.998Z,25.10
2022-11-05T07:09:22.109Z,22.80
2022-11-05T07:11:54.719Z,23.10
2022-11-05T07:14:28.865Z,22.60
2022-11-05T07:17:02.179Z,22.30
2022-11-05T07:19:35.290Z,24.90
2022-11-05T07:22:11.912Z,23.50
2022-11-05T07:24:47.267Z,25.10
2022-11-05T07:27:20.492Z,24.50
2022-11-05T07:29:54.377Z,24.40
2022-11-05T07:32:28.738Z,22.10
2022-11-05T07:35:03.091Z,21.80
2022-11-05T07:37:45.673Z,23.70
2022-11-05T07:40:23.063Z,25.10
2022-11-05T07:42:57.035Z,22.60
2022-11-05T07:45:30.881Z,23.50
2022-11-05T07:48:07.788Z,23.30
2022-11-05T07:50:42.479Z,22.10
2022-11-05T07:53:17.062Z,21.60
2022-11-05T07:56:14.068Z,23.30
2022-11-05T07:58:50.328Z,22.90
2022-11-05T08:01:46.806Z,22.80
2022-11-05T08:04:50.681Z,24.40
2022-11-05T08:07:27.149Z,24.20
2022-11-05T08:10:05.145Z,26.20
2022-11-05T08:13:25.832Z,25.10
2022-11-05T08:16:02.667Z,23.70
2022-11-05T08:18:37.021Z,25.30
2022-11-05T08:21:10.076Z,24.30
2022-11-05T08:23:46.005Z,21.80
2022-11-05T08:26:20.904Z,21.40
2022-11-05T08:28:55.097Z,21.70
2022-11-05T09:25:15.358Z,23.70
2022-11-05T09:28:28.441Z,23.90
2022-11-05T09:31:00.783Z,26.90
2022-11-05T09:33:32.965Z,24.50
2022-11-05T09:36:05.407Z,19.80
2022-11-05T09:38:38.293Z,21.70
2022-11-05T09:41:14.689Z,20.20
2022-11-05T09:43:49.562Z,19.30
2022-11-05T09:46:23.835Z,20.40
2022-11-05T09:48:58.336Z,21.30
2022-11-05T09:51:30.286Z,19.30
2022-11-05T09:54:03.321Z,18.60
2022-11-05T09:56:37.433Z,17.30
2022-11-05T09:59:17.330Z,16.10
2022-11-05T10:01:49.413Z,19.60
2022-11-05T10:04:31.187Z,17.40
2022-11-05T10:07:06.729Z,15.70
2022-11-05T10:09:43.123Z,15.30
2022-11-05T10:12:22.575Z,16.40
2022-11-05T10:15:04.005Z,17.20
2022-11-05T10:17:39.295Z,17.70
2022-11-05T10:20:20.368Z,15.30
2022-11-05T10:22:59.915Z,17.20
2022-11-05T10:25:39.607Z,15.10
2022-11-05T10:28:16.025Z,16.90
2022-11-05T10:30:50.135Z,16.60
2022-11-05T10:33:29.405Z,16.80
2022-11-05T10:36:07.352Z,14.70
2022-11-05T10:38:42.634Z,17.30
2022-11-05T10:41:32.887Z,18.80
2022-11-05T10:44:14.754Z,17.00
2022-11-05T10:46:59.704Z,17.20
2022-11-05T10:49:44.026Z,18.60
2022-11-05T10:52:24.054Z,17.70
2022-11-05T10:55:02.293Z,16.30
2022-11-05T10:57:38.047Z,16.10
2022-11-05T11:00:32.052Z,20.90
2022-11-05T11:03:05.789Z,17.10
2022-11-05T11:05:41.060Z,18.00
2022-11-05T11:08:25.428Z,21.20
2022-11-05T11:10:59.933Z,18.20
2022-11-05T11:13:52.419Z,21.80
2022-11-05T11:16:26.040Z,20.70
2022-11-05T11:19:01.201Z,20.40
2022-11-05T11:21:38.991Z,17.40
2022-11-05T11:24:23.897Z,19.30
2022-11-05T11:26:55.975Z,15.50
2022-11-05T11:29:29.911Z,16.60
2022-11-05T11:32:03.615Z,15.50
2022-11-05T11:34:37.139Z,18.00
2022-11-05T11:37:16.700Z,19.70
2022-11-05T11:39:54.430Z,17.80
2022-11-05T11:42:32.278Z,19.30
2022-11-05T11:45:09.162Z,16.50
2022-11-05T11:47:46.018Z,16.10
2022-11-05T11:50:40.139Z,21.60
2022-11-05T11:53:32.086Z,17.20
2022-11-05T11:56:19.387Z,30.90
2022-11-05T11:58:55.352Z,20.80
2022-11-05T12:01:51.952Z,23.30
2022-11-05T12:04:38.263Z,24.70
2022-11-05T12:07:22.721Z,31.80
2022-11-05T12:10:18.341Z,31.80
2022-11-05T12:13:00.255Z,26.90
2022-11-05T12:15:44.369Z,20.10
2022-11-05T12:18:27.295Z,18.70
2022-11-05T12:21:34.630Z,16.30
2022-11-05T12:24:31.905Z,15.70
2022-11-05T12:27:17.738Z,14.90
2022-11-05T12:29:57.025Z,17.10
2022-11-05T12:32:42.600Z,20.30
2022-11-05T12:35:28.478Z,21.40
2022-11-05T12:38:05.866Z,23.90
2022-11-05T12:40:48.332Z,23.60
2022-11-05T12:43:33.343Z,22.20
2022-11-05T12:46:15.674Z,20.80
2022-11-05T12:49:25.082Z,15.70
2022-11-05T12:52:11.975Z,20.70
2022-11-05T12:54:54.770Z,17.60
2022-11-05T12:57:30.361Z,21.50
2022-11-05T13:00:14.078Z,17.70
2022-11-05T13:02:55.904Z,15.30
2022-11-05T13:05:35.036Z,16.10
2022-11-05T13:08:09.300Z,18.10
2022-11-05T13:10:44.231Z,12.50
2022-11-05T13:13:25.189Z,11.70
2022-11-05T13:16:00.586Z,12.40
2022-11-05T13:18:40.161Z,15.00
2022-11-05T13:21:15.107Z,16.80
2022-11-05T13:23:53.310Z,17.10
2022-11-05T13:26:28.600Z,17.80
2022-11-05T13:29:05.722Z,16.60
2022-11-05T13:31:40.070Z,14.90
2022-11-05T13:34:14.393Z,14.00
2022-11-05T13:37:17.580Z,12.90
2022-11-05T13:39:56.870Z,13.80
2022-11-05T13:42:56.463Z,16.00
2022-11-05T13:45:46.475Z,14.80
2022-11-05T13:48:37.957Z,11.00
2022-11-05T13:51:37.694Z,11.90
2022-11-05T13:54:47.060Z,10.10
2022-11-05T13:57:32.362Z,10.80
2022-11-05T14:00:13.173Z,9.10
2022-11-05T14:02:49.741Z,14.20
2022-11-05T14:05:28.243Z,11.30
2022-11-05T14:08:03.089Z,8.50
2022-11-05T14:10:42.713Z,7.60
2022-11-05T14:13:24.400Z,8.00
2022-11-05T14:16:07.064Z,7.80
2022-11-05T14:18:46.978Z,7.70
2022-11-05T14:21:51.800Z,7.30
2022-11-05T14:24:43.404Z,8.60
2022-11-05T14:27:45.556Z,7.60
2022-11-05T14:30:46.790Z,9.50
2022-11-05T14:33:36.325Z,12.30
2022-11-05T14:36:33.768Z,11.80
2022-11-05T14:39:21.883Z,12.70
2022-11-05T14:42:05.396Z,12.10
2022-11-05T14:44:57.389Z,12.60
2022-11-05T14:47:34.486Z,11.70
2022-11-05T14:50:13.264Z,16.70
2022-11-05T14:52:54.325Z,12.10
2022-11-05T14:55:33.295Z,19.00
2022-11-05T14:58:35.614Z,13.40
2022-11-05T15:01:09.643Z,18.10
2022-11-05T15:04:08.410Z,11.90
2022-11-05T15:06:42.117Z,15.50
2022-11-05T15:09:25.113Z,15.10
2022-11-05T15:12:18.528Z,15.70
2022-11-05T15:14:58.568Z,13.40
2022-11-05T15:17:34.374Z,16.20
2022-11-05T15:20:15.964Z,17.50
2022-11-05T15:22:50.998Z,20.80
2022-11-05T15:25:27.207Z,19.60
2022-11-05T15:28:08.304Z,20.00
2022-11-05T15:30:54.838Z,24.30
2022-11-05T15:33:28.827Z,29.90
2022-11-05T15:36:25.655Z,26.30
2022-11-05T15:39:28.930Z,39.80
2022-11-05T15:41:54.559Z,33.30
2022-11-05T15:44:33.093Z,43.90
2022-11-05T15:47:20.364Z,32.60
2022-11-05T15:49:55.633Z,50.40
2022-11-05T15:52:42.462Z,29.40
2022-11-05T15:55:23.860Z,45.60
2022-11-05T15:58:01.641Z,33.10
2022-11-05T16:00:37.949Z,26.70
2022-11-05T16:03:21.075Z,12.90
2022-11-05T16:05:54.760Z,25.20
2022-11-05T16:08:28.605Z,25.30
2022-11-05T16:11:04.111Z,18.50
2022-11-05T16:13:38.443Z,18.90
2022-11-05T16:16:32.636Z,29.60
2022-11-05T16:19:25.977Z,17.60
2022-11-05T16:21:58.724Z,22.20
2022-11-05T16:24:32.025Z,18.20
2022-11-05T16:27:05.495Z,17.60
2022-11-05T16:29:42.385Z,19.80
2022-11-05T16:32:23.053Z,21.30
2022-11-05T16:35:01.169Z,18.60
2022-11-05T16:37:39.928Z,19.10
2022-11-05T16:40:19.288Z,17.00
2022-11-05T16:42:53.218Z,24.00
2022-11-05T16:45:27.032Z,22.40
2022-11-05T16:47:59.210Z,25.80
2022-11-05T16:50:36.357Z,25.30
2022-11-05T16:53:09.699Z,23.90
2022-11-05T16:55:44.948Z,23.30
2022-11-05T16:58:22.208Z,24.10
2022-11-05T17:01:05.582Z,24.50
2022-11-05T17:03:39.836Z,21.10
2022-11-05T17:06:13.613Z,21.60
2022-11-05T17:08:45.856Z,22.20
2022-11-05T17:11:21.425Z,20.30
2022-11-05T17:13:54.907Z,19.80
2022-11-05T17:16:30.981Z,20.20
2022-11-05T17:19:05.642Z,19.90
2022-11-05T17:21:38.451Z,20.00
2022-11-05T17:24:11.964Z,21.90
2022-11-05T17:26:44.230Z,22.50
2022-11-05T17:29:18.224Z,24.30
2022-11-05T17:31:51.741Z,23.80
2022-11-05T17:34:25.433Z,27.20
2022-11-05T17:36:58.230Z,23.90
2022-11-05T17:39:34.703Z,24.60
2022-11-05T17:42:08.053Z,19.30
2022-11-05T17:44:41.324Z,15.40
2022-11-05T17:47:16.423Z,16.70
2022-11-05T17:49:49.681Z,15.10
2022-11-05T17:52:26.091Z,17.30
2022-11-05T17:55:01.626Z,15.80
2022-11-05T17:57:34.413Z,15.40
2022-11-05T18:00:09.372Z,15.70
2022-11-05T18:02:44.396Z,16.50
2022-11-05T18:05:20.336Z,17.90
2022-11-05T18:07:54.297Z,17.80
2022-11-05T18:10:28.713Z,17.50
2022-11-05T18:13:02.628Z,18.80
2022-11-05T18:15:36.517Z,24.90
2022-11-05T18:18:09.294Z,28.50
2022-11-05T18:20:47.681Z,28.70
2022-11-05T18:23:22.457Z,30.20
2022-11-05T18:25:56.637Z,32.80
2022-11-05T18:28:32.311Z,35.70
2022-11-05T18:31:12.715Z,29.50
2022-11-05T18:33:49.340Z,23.50
2022-11-05T18:36:24.687Z,22.50
2022-11-05T18:38:57.857Z,25.20
2022-11-05T18:41:30.254Z,19.10
2022-11-05T18:44:03.993Z,23.00
2022-11-05T18:46:57.068Z,22.40
2022-11-05T18:49:33.269Z,16.80
2022-11-05T18:52:07.959Z,16.40
2022-11-05T18:54:42.539Z,16.60
2022-11-05T18:57:15.070Z,16.00
2022-11-05T18:59:51.396Z,17.40
2022-11-05T19:02:24.521Z,17.40
2022-11-05T19:05:27.442Z,19.40
2022-11-05T19:07:55.000Z,16.60
2022-11-05T19:10:27.093Z,15.50
2022-11-05T19:12:59.224Z,15.20
2022-11-05T19:15:35.931Z,15.30
2022-11-05T19:18:09.708Z,15.70
2022-11-05T19:20:42.277Z,17.00
2022-11-05T19:23:16.137Z,22.80
2022-11-05T19:25:48.076Z,19.70
2022-11-05T19:28:21.941Z,20.60
2022-11-05T19:30:54.876Z,21.00
2022-11-05T19:33:26.830Z,20.50
2022-11-05T19:35:59.958Z,23.60
2022-11-05T19:38:35.605Z,24.30
2022-11-05T19:41:13.959Z,20.50
2022-11-05T19:43:48.278Z,25.00
2022-11-05T19:46:22.443Z,25.40
2022-11-05T19:48:57.797Z,24.90
2022-11-05T19:51:31.448Z,25.90
2022-11-05T19:54:05.054Z,26.70
2022-11-05T19:56:38.592Z,28.10
2022-11-05T19:59:14.982Z,27.60
2022-11-05T20:01:47.224Z,28.00
2022-11-05T20:04:23.252Z,29.80
2022-11-05T20:06:56.941Z,29.90
2022-11-05T20:09:29.717Z,29.70
2022-11-05T20:12:05.835Z,30.50
2022-11-05T20:14:39.994Z,29.50
2022-11-05T20:17:12.046Z,29.30
2022-11-05T20:19:47.085Z,29.80
2022-11-05T20:22:21.134Z,29.20
2022-11-05T20:24:58.142Z,32.80
2022-11-05T20:27:38.260Z,30.90
2022-11-05T20:30:14.315Z,33.00
2022-11-05T20:32:49.731Z,28.70
2022-11-05T20:35:21.803Z,29.10
2022-11-05T20:37:55.982Z,29.80
2022-11-05T20:40:28.016Z,30.70
2022-11-05T20:42:59.946Z,33.50
2022-11-05T20:45:33.459Z,31.80
2022-11-05T20:48:11.726Z,30.00
2022-11-05T20:50:47.196Z,28.60
2022-11-05T20:53:21.618Z,28.50
2022-11-05T20:55:55.385Z,25.70
2022-11-05T20:58:31.732Z,25.30
2022-11-05T21:01:05.097Z,25.60
2022-11-05T21:03:38.204Z,27.80
2022-11-05T21:06:12.257Z,29.40
2022-11-05T21:08:47.446Z,32.00
2022-11-05T21:11:24.101Z,31.80
2022-11-05T21:14:00.917Z,32.80
2022-11-05T21:16:33.353Z,33.40
2022-11-05T21:19:07.599Z,31.50
2022-11-05T21:21:41.897Z,31.70
2022-11-05T21:24:15.553Z,32.60
2022-11-05T21:26:50.598Z,31.70
2022-11-05T21:29:24.952Z,32.20
2022-11-05T21:31:57.560Z,32.20
2022-11-05T21:34:30.395Z,34.50
2022-11-05T21:37:09.681Z,32.00
2022-11-05T21:39:44.724Z,32.80
2022-11-05T21:42:18.468Z,32.40
2022-11-05T21:44:57.805Z,31.90
2022-11-05T21:47:35.929Z,34.70
2022-11-05T21:50:10.730Z,32.40
2022-11-05T21:53:02.398Z,30.50
2022-11-05T21:55:53.133Z,29.70
2022-11-05T21:58:45.642Z,30.50
2022-11-05T22:01:19.730Z,28.30
2022-11-05T22:03:53.111Z,28.80
2022-11-05T22:06:29.401Z,26.40
2022-11-05T22:09:04.048Z,27.20
2022-11-05T22:11:39.587Z,28.60
2022-11-05T22:14:16.389Z,29.30
2022-11-05T22:16:48.940Z,27.70
2022-11-05T22:19:21.857Z,27.60
2022-11-05T22:21:56.885Z,26.00
2022-11-05T22:24:31.794Z,26.70
2022-11-05T22:27:10.338Z,26.80
2022-11-05T22:29:46.192Z,26.40
2022-11-05T22:32:22.239Z,26.20
2022-11-05T22:34:54.952Z,27.50
2022-11-05T22:37:27.869Z,27.00
2022-11-05T22:39:59.748Z,27.80
2022-11-05T22:42:34.850Z,26.90
2022-11-05T22:45:10.488Z,26.90
2022-11-05T22:47:45.256Z,27.50
2022-11-05T22:50:17.160Z,26.60
2022-11-05T22:52:51.821Z,27.00
2022-11-05T22:55:25.762Z,26.30
2022-11-05T22:57:58.458Z,27.40
2022-11-05T23:00:37.482Z,27.50
2022-11-05T23:03:11.488Z,28.50
2022-11-05T23:05:44.081Z,31.20
2022-11-05T23:08:35.469Z,32.90
2022-11-05T23:11:30.896Z,28.60
2022-11-05T23:14:03.595Z,27.50
2022-11-05T23:16:57.890Z,27.40
2022-11-05T23:19:48.071Z,27.40
2022-11-05T23:22:44.617Z,29.40
2022-11-05T23:25:18.721Z,28.60
2022-11-05T23:27:52.937Z,29.40
2022-11-05T23:30:27.114Z,27.60
2022-11-05T23:32:59.796Z,28.00
2022-11-05T23:35:55.570Z,30.20
2022-11-05T23:38:37.982Z,29.00
2022-11-05T23:41:28.842Z,28.80
2022-11-05T23:44:19.769Z,30.80
2022-11-05T23:47:10.599Z,29.90
2022-11-05T23:49:44.659Z,28.80
2022-11-05T23:52:17.425Z,28.60
2022-11-05T23:54:49.748Z,29.60
2022-11-05T23:57:22.093Z,28.10
2022-11-05T23:59:55.525Z,27.80
